Time;durP1;ratioP1;P1;durP2;ratioP2;P2;SDS_P1;SDS_P2;PMS_P1;PMS_P2;Temp;Humidity;BMP_temperature;BMP_pressure;BME280_temperature;BME280_humidity;BME280_pressure;Samples;Min_cycle;Max_cycle;Signal;HPM_P1;HPM_P2
2021/03/11 00:01:51;;;;;;;21.13;12.80;;;8.40;97.70;;;;;;5089183;28;20386;-53
2021/03/11 00:04:17;;;;;;;19.85;11.30;;;8.40;97.40;;;;;;5089619;28;20607;-59
2021/03/11 00:06:43;;;;;;;20.75;11.77;;;8.40;97.10;;;;;;5089152;28;20394;-53
2021/03/11 00:09:08;;;;;;;22.97;12.00;;;8.40;97.50;;;;;;5090032;28;20816;-53
2021/03/11 00:11:34;;;;;;;20.35;11.00;;;8.40;97.20;;;;;;5088940;28;20394;-54
2021/03/11 00:14:00;;;;;;;20.87;11.90;;;8.50;97.00;;;;;;5084039;28;20391;-55
2021/03/11 00:16:25;;;;;;;18.92;11.32;;;8.50;96.80;;;;;;5090089;28;20394;-55
2021/03/11 00:18:51;;;;;;;21.70;12.23;;;8.60;96.80;;;;;;5091166;28;20374;-55
2021/03/11 00:21:17;;;;;;;19.43;11.60;;;8.60;96.80;;;;;;5088839;28;20397;-53
2021/03/11 00:23:42;;;;;;;19.77;10.98;;;8.50;96.90;;;;;;5089384;28;20378;-56
2021/03/11 00:26:08;;;;;;;18.45;11.85;;;8.50;97.10;;;;;;5089928;28;20478;-53
2021/03/11 00:28:33;;;;;;;21.00;12.00;;;8.50;97.40;;;;;;5087815;28;20496;-53
2021/03/11 00:30:59;;;;;;;22.00;11.70;;;8.50;97.40;;;;;;5071813;28;20933;-53
2021/03/11 00:33:25;;;;;;;21.10;12.07;;;8.50;97.60;;;;;;5087906;28;20474;-54
2021/03/11 00:35:51;;;;;;;21.20;12.02;;;8.60;97.40;;;;;;5088933;28;21408;-54
2021/03/11 00:38:16;;;;;;;21.63;11.70;;;8.50;97.40;;;;;;5089335;28;20471;-54
2021/03/11 00:40:42;;;;;;;19.52;10.77;;;8.60;97.50;;;;;;5088872;28;20422;-53
2021/03/11 00:43:10;;;;;;;21.13;11.30;;;8.60;97.40;;;;;;5089444;28;20404;-53
2021/03/11 00:45:36;;;;;;;21.48;11.93;;;8.50;97.50;;;;;;5089621;28;20393;-54
2021/03/11 00:48:02;;;;;;;19.90;11.55;;;8.50;97.80;;;;;;5089433;28;20378;-53
2021/03/11 00:50:28;;;;;;;23.05;11.90;;;8.50;98.00;;;;;;5088245;28;20902;-54
2021/03/11 00:52:54;;;;;;;18.83;11.50;;;8.50;98.00;;;;;;5088639;28;20871;-54
2021/03/11 00:55:21;;;;;;;19.93;11.53;;;8.50;97.90;;;;;;5089408;28;20389;-59
2021/03/11 00:57:47;;;;;;;20.88;12.00;;;8.50;97.80;;;;;;5088457;28;20475;-53
2021/03/11 01:00:18;;;;;;;19.63;11.50;;;8.60;97.80;;;;;;5089766;28;20452;-54
2021/03/11 01:02:44;;;;;;;20.55;11.57;;;8.50;98.10;;;;;;5089171;28;20456;-53
2021/03/11 01:05:14;;;;;;;19.50;11.53;;;8.70;98.50;;;;;;5089404;28;20852;-54
2021/03/11 01:07:39;;;;;;;20.40;11.48;;;8.60;98.50;;;;;;5089146;28;21039;-53
2021/03/11 01:10:06;;;;;;;21.73;11.60;;;8.50;98.40;;;;;;5088580;28;20410;-53
2021/03/11 01:12:31;;;;;;;17.85;10.65;;;8.50;98.50;;;;;;5088352;28;20805;-54
2021/03/11 01:14:57;;;;;;;18.13;10.43;;;8.50;98.60;;;;;;5088684;28;20441;-54
2021/03/11 01:17:23;;;;;;;16.77;10.07;;;8.50;98.50;;;;;;5087736;28;20460;-60
2021/03/11 01:19:48;;;;;;;17.35;8.73;;;8.50;98.70;;;;;;5089187;28;20507;-55
2021/03/11 01:22:14;;;;;;;17.52;9.52;;;8.40;98.00;;;;;;5092168;28;20447;-54
2021/03/11 01:24:39;;;;;;;18.63;9.57;;;8.50;98.10;;;;;;5092069;28;20419;-54
2021/03/11 01:27:06;;;;;;;17.70;9.40;;;8.50;98.20;;;;;;5092438;28;20417;-53
2021/03/11 01:29:31;;;;;;;16.00;8.75;;;8.50;98.10;;;;;;5092811;28;20409;-53
2021/03/11 01:31:57;;;;;;;18.48;10.43;;;8.50;97.80;;;;;;5093457;28;20419;-53
2021/03/11 01:34:22;;;;;;;17.40;9.67;;;8.60;97.90;;;;;;5091495;28;20393;-60
2021/03/11 01:36:48;;;;;;;19.23;9.75;;;8.60;97.90;;;;;;5092143;28;20420;-53
2021/03/11 01:39:14;;;;;;;18.27;9.23;;;8.60;97.60;;;;;;5092324;28;20767;-53
2021/03/11 01:41:40;;;;;;;14.18;8.10;;;8.60;97.80;;;;;;5092344;28;20978;-53
2021/03/11 01:44:06;;;;;;;12.17;7.00;;;8.60;98.00;;;;;;5092167;28;20731;-53
2021/03/11 01:46:32;;;;;;;13.18;6.90;;;8.50;98.20;;;;;;5092480;28;20374;-54
2021/03/11 01:48:57;;;;;;;15.43;7.23;;;8.60;98.30;;;;;;5091730;28;20725;-53
2021/03/11 01:51:23;;;;;;;12.88;7.15;;;8.70;98.20;;;;;;5092315;28;20418;-59
2021/03/11 01:53:50;;;;;;;15.00;8.73;;;8.60;98.00;;;;;;5092262;28;20886;-54
2021/03/11 01:56:16;;;;;;;14.88;8.77;;;8.90;97.50;;;;;;5092640;28;20744;-53
2021/03/11 01:58:42;;;;;;;16.40;8.32;;;8.90;97.20;;;;;;5091828;28;20374;-54
2021/03/11 02:01:08;;;;;;;18.17;9.20;;;8.90;97.10;;;;;;5091080;28;20413;-53
2021/03/11 02:03:33;;;;;;;17.37;8.60;;;8.90;97.20;;;;;;5092335;28;20397;-54
2021/03/11 02:06:01;;;;;;;14.98;7.53;;;8.90;97.60;;;;;;5091725;28;20425;-54
2021/03/11 02:08:26;;;;;;;15.95;8.25;;;8.90;97.60;;;;;;5091926;28;20385;-53
2021/03/11 02:10:55;;;;;;;14.70;7.80;;;9.00;97.60;;;;;;5091469;28;20398;-53
2021/03/11 02:13:31;;;;;;;14.52;7.35;;;8.90;97.40;;;;;;5092014;28;20378;-59
2021/03/11 02:16:03;;;;;;;14.40;7.10;;;8.90;97.70;;;;;;5091382;28;20402;-53
2021/03/11 02:18:53;;;;;;;12.07;6.45;;;8.90;98.40;;;;;;5091949;28;20386;-53
2021/03/11 02:21:28;;;;;;;11.52;5.57;;;8.90;98.90;;;;;;5091473;28;20963;-53
2021/03/11 02:24:12;;;;;;;12.25;5.75;;;8.90;99.40;;;;;;5092246;28;20735;-53
2021/03/11 02:26:53;;;;;;;10.25;5.28;;;8.90;99.70;;;;;;5090235;28;20501;-54
2021/03/11 02:29:28;;;;;;;10.57;5.20;;;8.90;99.90;;;;;;5092562;28;20381;-53
2021/03/11 02:31:57;;;;;;;11.40;5.63;;;8.90;99.90;;;;;;5090034;28;20394;-53
2021/03/11 02:34:26;;;;;;;10.17;4.83;;;9.00;99.90;;;;;;5090584;28;20890;-59
2021/03/11 02:36:55;;;;;;;10.95;5.25;;;9.00;99.90;;;;;;5091965;28;20419;-53
2021/03/11 02:39:24;;;;;;;10.23;5.47;;;9.00;99.90;;;;;;5091974;28;20473;-59
2021/03/11 02:41:52;;;;;;;10.30;5.57;;;9.00;99.90;;;;;;5090780;28;20470;-54
2021/03/11 02:44:20;;;;;;;9.15;4.95;;;9.00;99.90;;;;;;5091714;28;20434;-54
2021/03/11 02:46:47;;;;;;;8.55;4.50;;;9.00;99.90;;;;;;5091737;28;20374;-53
2021/03/11 02:49:13;;;;;;;10.65;4.80;;;9.00;99.90;;;;;;5090597;28;20477;-53
2021/03/11 02:51:40;;;;;;;10.00;4.90;;;8.90;99.90;;;;;;5091346;28;20830;-53
2021/03/11 02:54:06;;;;;;;11.60;5.50;;;8.90;99.90;;;;;;5091888;28;20378;-54
2021/03/11 02:56:33;;;;;;;12.65;5.63;;;8.90;99.90;;;;;;5089538;28;20920;-53
2021/03/11 02:59:00;;;;;;;10.80;5.40;;;8.90;99.90;;;;;;5091398;28;20473;-54
2021/03/11 03:01:27;;;;;;;10.55;5.82;;;8.90;99.90;;;;;;5081000;28;20402;-54
2021/03/11 03:03:53;;;;;;;12.43;5.50;;;9.00;99.90;;;;;;5082736;28;20395;-53
2021/03/11 03:06:20;;;;;;;9.57;5.10;;;9.00;99.90;;;;;;5090731;28;20409;-54
2021/03/11 03:08:47;;;;;;;8.70;4.65;;;8.90;99.90;;;;;;5089916;28;20480;-53
2021/03/11 03:11:14;;;;;;;12.52;5.78;;;8.90;99.90;;;;;;5091996;28;20386;-53
2021/03/11 03:13:43;;;;;;;9.50;5.30;;;8.90;99.90;;;;;;5089486;28;20497;-53
2021/03/11 03:16:10;;;;;;;11.27;5.40;;;8.90;99.90;;;;;;5082588;28;20409;-54
2021/03/11 03:18:37;;;;;;;10.52;5.18;;;8.90;99.90;;;;;;5089027;28;20394;-54
2021/03/11 03:21:10;;;;;;;12.55;5.10;;;8.90;99.90;;;;;;5091205;28;20504;-53
2021/03/11 03:23:38;;;;;;;10.02;5.10;;;8.90;99.90;;;;;;5085752;28;20386;-54
2021/03/11 03:26:03;;;;;;;10.40;5.30;;;9.00;99.90;;;;;;5089499;28;20429;-54
2021/03/11 03:28:29;;;;;;;10.83;5.10;;;9.00;99.90;;;;;;5090442;28;20417;-53
2021/03/11 03:30:55;;;;;;;10.90;5.25;;;9.00;99.90;;;;;;5089940;28;20394;-54
2021/03/11 03:33:21;;;;;;;11.18;5.15;;;9.10;99.90;;;;;;5089993;28;20731;-54
2021/03/11 03:35:47;;;;;;;10.70;5.07;;;9.20;99.90;;;;;;5089366;28;20390;-54
2021/03/11 03:38:15;;;;;;;9.30;5.10;;;9.00;99.90;;;;;;5090853;28;20743;-53
2021/03/11 03:40:42;;;;;;;10.67;5.80;;;9.10;99.90;;;;;;5088715;28;20410;-53
2021/03/11 03:43:15;;;;;;;13.10;5.22;;;9.10;99.90;;;;;;5089612;28;20891;-53
2021/03/11 03:45:43;;;;;;;9.90;5.18;;;9.00;99.90;;;;;;5089973;28;20386;-54
2021/03/11 03:48:15;;;;;;;10.55;4.97;;;9.00;99.90;;;;;;5089216;28;20386;-54
2021/03/11 03:50:45;;;;;;;11.35;4.90;;;9.00;99.90;;;;;;5089028;28;20468;-54
2021/03/11 03:53:22;;;;;;;10.43;5.18;;;9.00;99.90;;;;;;5089458;28;20871;-54
2021/03/11 03:55:53;;;;;;;12.10;5.20;;;9.00;99.90;;;;;;5088858;28;20410;-53
2021/03/11 03:58:19;;;;;;;11.95;4.95;;;9.10;99.90;;;;;;5090536;28;20382;-54
2021/03/11 04:00:47;;;;;;;10.05;4.72;;;9.10;99.90;;;;;;5088018;28;20792;-53
2021/03/11 04:03:13;;;;;;;11.00;4.60;;;9.20;99.90;;;;;;5089048;28;20489;-54
2021/03/11 04:05:40;;;;;;;11.75;5.00;;;9.30;99.90;;;;;;5088962;28;20386;-53
2021/03/11 04:08:06;;;;;;;9.50;4.90;;;9.30;99.90;;;;;;5089643;28;20382;-59
2021/03/11 04:10:33;;;;;;;8.63;4.50;;;9.30;99.90;;;;;;5087516;28;20390;-54
2021/03/11 04:12:59;;;;;;;10.88;5.78;;;9.40;99.90;;;;;;5090262;28;20390;-53
2021/03/11 04:15:25;;;;;;;12.43;5.10;;;9.40;99.90;;;;;;5088264;28;20398;-61
2021/03/11 04:17:52;;;;;;;11.50;5.40;;;9.40;99.90;;;;;;5090362;28;20430;-54
2021/03/11 04:20:18;;;;;;;10.05;5.10;;;9.50;99.90;;;;;;5089278;28;20414;-56
2021/03/11 04:22:44;;;;;;;10.23;4.90;;;9.50;99.90;;;;;;5089397;28;20377;-53
2021/03/11 04:25:10;;;;;;;10.23;4.90;;;9.60;99.90;;;;;;5090428;28;20439;-54
2021/03/11 04:27:37;;;;;;;9.93;4.72;;;9.60;99.90;;;;;;5089208;28;20400;-54
2021/03/11 04:30:05;;;;;;;11.17;5.07;;;9.60;99.90;;;;;;5089563;28;20378;-54
2021/03/11 04:32:32;;;;;;;12.67;5.50;;;9.50;99.90;;;;;;5071836;28;20392;-54
2021/03/11 04:34:58;;;;;;;10.52;5.05;;;9.60;99.90;;;;;;5086236;28;20428;-54
2021/03/11 04:37:24;;;;;;;9.18;4.85;;;9.40;99.90;;;;;;5082599;28;20914;-56
2021/03/11 04:39:50;;;;;;;9.30;4.93;;;9.50;99.90;;;;;;5090214;28;20864;-53
2021/03/11 04:42:16;;;;;;;9.50;4.80;;;9.60;99.90;;;;;;5090298;28;20379;-53
2021/03/11 04:44:43;;;;;;;11.95;4.82;;;9.60;99.90;;;;;;5070844;28;20413;-54
2021/03/11 04:47:11;;;;;;;9.77;5.20;;;9.60;99.90;;;;;;5089976;28;20885;-53
2021/03/11 04:49:38;;;;;;;10.15;4.95;;;9.60;99.90;;;;;;5089368;28;20374;-53
2021/03/11 04:52:05;;;;;;;8.30;4.30;;;9.60;99.90;;;;;;5089855;28;20518;-53
2021/03/11 04:54:32;;;;;;;10.40;4.38;;;9.50;99.90;;;;;;5089154;28;20377;-54
2021/03/11 04:56:58;;;;;;;8.68;4.20;;;9.40;99.90;;;;;;5090352;28;20797;-54
2021/03/11 04:59:26;;;;;;;9.57;3.75;;;9.50;99.90;;;;;;5082331;28;20441;-59
2021/03/11 05:01:55;;;;;;;9.07;4.00;;;9.50;99.90;;;;;;5085171;28;20384;-53
2021/03/11 05:04:22;;;;;;;10.38;3.85;;;9.40;99.90;;;;;;5093367;28;20406;-53
2021/03/11 05:06:47;;;;;;;8.70;3.97;;;9.50;99.90;;;;;;5065531;28;20399;-53
2021/03/11 05:09:13;;;;;;;9.57;3.73;;;9.60;99.90;;;;;;5055828;28;20392;-53
2021/03/11 05:11:40;;;;;;;9.25;3.78;;;9.50;99.90;;;;;;5072985;28;20435;-53
2021/03/11 05:14:06;;;;;;;9.85;3.80;;;9.60;99.90;;;;;;5073586;28;20912;-53
2021/03/11 05:16:32;;;;;;;8.52;4.20;;;9.60;99.90;;;;;;5074540;28;20394;-53
2021/03/11 05:18:57;;;;;;;13.07;4.10;;;9.50;99.90;;;;;;5093532;28;20392;-53
2021/03/11 05:21:23;;;;;;;7.83;3.70;;;9.50;99.90;;;;;;5093769;28;20370;-57
2021/03/11 05:23:49;;;;;;;7.50;4.00;;;9.50;99.90;;;;;;5092980;28;20386;-54
2021/03/11 05:26:14;;;;;;;6.63;3.15;;;9.50;99.90;;;;;;5093530;28;20382;-54
2021/03/11 05:28:40;;;;;;;7.43;3.33;;;9.50;99.90;;;;;;5093027;28;20423;-54
2021/03/11 05:31:06;;;;;;;7.10;3.30;;;9.50;99.90;;;;;;5093606;28;20390;-54
2021/03/11 05:33:31;;;;;;;7.67;3.50;;;9.50;99.90;;;;;;5079402;28;20721;-54
2021/03/11 05:35:57;;;;;;;8.07;3.30;;;9.50;99.90;;;;;;5072822;28;20869;-53
2021/03/11 05:38:23;;;;;;;9.07;3.60;;;9.50;99.90;;;;;;5072837;28;20372;-54
2021/03/11 05:40:52;;;;;;;8.82;3.70;;;9.50;99.90;;;;;;5072421;28;20439;-54
2021/03/11 05:43:18;;;;;;;7.43;3.45;;;9.60;99.90;;;;;;5073140;28;20379;-53
2021/03/11 05:45:45;;;;;;;9.48;3.70;;;9.60;99.90;;;;;;5072152;28;21027;-53
2021/03/11 05:48:14;;;;;;;7.95;3.70;;;9.60;99.90;;;;;;5072915;28;20380;-53
2021/03/11 05:50:41;;;;;;;7.00;3.38;;;9.60;99.90;;;;;;5071991;28;20395;-54
2021/03/11 05:53:08;;;;;;;9.43;3.27;;;9.60;99.90;;;;;;5072700;28;20368;-54
2021/03/11 05:55:36;;;;;;;7.82;3.22;;;9.60;99.90;;;;;;5090247;28;20390;-54
2021/03/11 05:58:02;;;;;;;8.27;3.13;;;9.60;99.90;;;;;;5094125;28;20414;-54
2021/03/11 06:00:28;;;;;;;7.65;3.50;;;9.60;99.90;;;;;;5092321;28;20480;-59
2021/03/11 06:02:58;;;;;;;8.10;3.67;;;9.70;99.90;;;;;;5093151;28;20383;-54
2021/03/11 06:05:25;;;;;;;8.10;3.80;;;9.70;99.90;;;;;;5083934;28;20414;-59
2021/03/11 06:07:51;;;;;;;6.70;3.30;;;9.70;99.90;;;;;;5093214;28;20473;-54
2021/03/11 06:10:19;;;;;;;7.90;3.58;;;9.70;99.90;;;;;;5092862;28;20375;-55
2021/03/11 06:12:46;;;;;;;9.02;3.40;;;9.70;99.90;;;;;;5086523;28;20382;-54
2021/03/11 06:15:18;;;;;;;8.90;3.90;;;9.90;99.90;;;;;;5086219;28;20395;-53
2021/03/11 06:17:45;;;;;;;6.10;3.00;;;9.70;99.90;;;;;;5070096;28;20479;-55
2021/03/11 06:20:12;;;;;;;6.97;3.10;;;9.70;99.90;;;;;;5072653;28;20406;-54
2021/03/11 06:22:38;;;;;;;8.77;2.67;;;9.70;99.90;;;;;;5089441;28;20398;-54
2021/03/11 06:25:05;;;;;;;9.70;3.60;;;9.80;99.90;;;;;;5090794;28;20398;-54
2021/03/11 06:27:31;;;;;;;6.55;3.17;;;9.80;99.90;;;;;;5091286;28;20506;-54
2021/03/11 06:29:57;;;;;;;5.65;2.80;;;9.80;99.90;;;;;;5090469;28;20835;-54
2021/03/11 06:32:24;;;;;;;10.20;3.23;;;9.80;99.90;;;;;;5091709;28;20386;-54
2021/03/11 06:34:50;;;;;;;6.32;2.90;;;9.80;99.90;;;;;;5090308;28;20371;-54
2021/03/11 06:37:33;;;;;;;7.75;3.05;;;9.80;99.90;;;;;;5091127;28;20477;-54
2021/03/11 06:40:25;;;;;;;6.80;2.75;;;9.80;99.90;;;;;;5090401;28;20500;-54
2021/03/11 06:42:52;;;;;;;6.87;2.90;;;9.80;99.90;;;;;;5087592;28;20393;-54
2021/03/11 06:45:29;;;;;;;8.52;3.30;;;9.80;99.90;;;;;;5091878;28;20413;-53
2021/03/11 06:48:26;;;;;;;7.97;3.10;;;10.00;99.90;;;;;;5089678;28;20390;-54
2021/03/11 06:50:54;;;;;;;7.38;3.78;;;9.90;99.90;;;;;;5083112;28;20402;-54
2021/03/11 06:53:20;;;;;;;6.17;2.40;;;10.00;99.90;;;;;;5089122;28;20393;-55
2021/03/11 06:55:46;;;;;;;9.43;3.10;;;10.00;99.90;;;;;;5058369;28;20402;-55
2021/03/11 06:58:23;;;;;;;8.43;2.60;;;10.10;99.90;;;;;;5058830;28;20388;-54
2021/03/11 07:01:05;;;;;;;6.55;2.58;;;10.10;99.90;;;;;;5087612;28;20575;-55
2021/03/11 07:03:42;;;;;;;5.20;1.90;;;10.10;99.90;;;;;;5071113;28;20580;-54
2021/03/11 07:06:08;;;;;;;7.10;2.65;;;10.20;99.90;;;;;;5090480;28;20417;-54
2021/03/11 07:08:34;;;;;;;8.55;2.75;;;10.20;99.90;;;;;;5089593;28;20397;-54
2021/03/11 07:11:06;;;;;;;7.05;2.80;;;10.20;99.90;;;;;;5090913;28;20470;-54
2021/03/11 07:13:43;;;;;;;5.50;2.40;;;10.30;99.90;;;;;;5078068;28;20404;-56
2021/03/11 07:16:18;;;;;;;5.50;1.92;;;10.40;99.90;;;;;;5089812;28;20378;-54
2021/03/11 07:18:44;;;;;;;6.60;2.50;;;10.30;99.90;;;;;;5088768;28;20431;-55
2021/03/11 07:21:11;;;;;;;5.20;2.40;;;10.40;99.90;;;;;;5089014;28;20883;-55
2021/03/11 07:23:47;;;;;;;6.00;2.30;;;10.40;99.90;;;;;;5090182;28;20393;-56
2021/03/11 07:26:14;;;;;;;7.13;2.72;;;10.50;99.90;;;;;;5089522;28;20390;-54
2021/03/11 07:28:39;;;;;;;6.80;2.22;;;10.40;99.90;;;;;;5088849;28;20435;-54
2021/03/11 07:31:06;;;;;;;6.03;1.90;;;10.50;99.90;;;;;;5089761;28;20402;-54
2021/03/11 07:33:37;;;;;;;5.10;2.20;;;10.60;99.90;;;;;;5090237;28;20414;-56
2021/03/11 07:36:05;;;;;;;5.32;2.10;;;10.70;99.90;;;;;;5089456;28;20386;-55
2021/03/11 07:38:34;;;;;;;5.18;2.03;;;10.60;99.90;;;;;;5089274;28;20386;-54
2021/03/11 07:41:06;;;;;;;5.80;2.25;;;10.60;99.90;;;;;;5090127;28;20747;-54
2021/03/11 07:43:32;;;;;;;5.95;2.30;;;10.80;99.90;;;;;;5088702;28;20424;-54
2021/03/11 07:46:03;;;;;;;5.72;2.10;;;10.80;99.90;;;;;;5090510;28;20398;-54
2021/03/11 07:48:30;;;;;;;6.05;1.90;;;10.80;99.90;;;;;;5088671;28;20804;-59
2021/03/11 07:50:56;;;;;;;9.90;2.30;;;10.80;99.90;;;;;;5090268;28;20378;-55
2021/03/11 07:53:24;;;;;;;5.05;1.70;;;10.90;99.90;;;;;;5089437;28;20476;-54
2021/03/11 07:55:50;;;;;;;4.50;1.67;;;11.00;99.90;;;;;;5089396;28;20776;-54
2021/03/11 07:58:23;;;;;;;7.40;2.30;;;11.10;99.90;;;;;;5089028;28;20451;-54
2021/03/11 08:00:49;;;;;;;4.95;1.70;;;11.20;99.90;;;;;;5089520;28;20437;-54
2021/03/11 08:03:26;;;;;;;6.18;2.00;;;11.30;99.90;;;;;;5087910;28;20816;-53
2021/03/11 08:05:52;;;;;;;5.35;1.85;;;11.30;99.90;;;;;;5089487;28;20382;-54
2021/03/11 08:08:19;;;;;;;4.10;1.70;;;11.50;99.90;;;;;;5088556;28;20755;-54
2021/03/11 08:10:47;;;;;;;5.85;1.90;;;11.70;99.90;;;;;;5088672;28;21357;-54
2021/03/11 08:13:36;;;;;;;10.50;2.10;;;11.60;99.90;;;;;;5088421;28;20398;-54
2021/03/11 08:16:17;;;;;;;4.95;2.00;;;11.70;99.90;;;;;;5088634;28;20394;-53
2021/03/11 08:18:44;;;;;;;5.63;1.80;;;12.00;99.90;;;;;;5089114;28;20481;-53
2021/03/11 08:21:24;;;;;;;6.40;1.70;;;12.00;99.90;;;;;;5083277;28;20403;-55
2021/03/11 08:23:57;;;;;;;4.60;1.70;;;12.10;99.90;;;;;;5087747;28;20426;-54
2021/03/11 08:26:38;;;;;;;6.20;2.25;;;12.20;99.90;;;;;;5089705;28;20398;-54
2021/03/11 08:29:19;;;;;;;5.80;1.80;;;12.20;99.90;;;;;;5087946;28;20394;-54
2021/03/11 08:31:46;;;;;;;4.97;1.98;;;12.30;99.90;;;;;;5084595;28;20555;-54
2021/03/11 08:34:33;;;;;;;5.70;1.88;;;12.20;99.90;;;;;;5090044;28;20426;-53
2021/03/11 08:37:19;;;;;;;4.80;1.70;;;12.10;99.90;;;;;;5087935;28;20492;-54
2021/03/11 08:39:46;;;;;;;6.40;1.88;;;12.20;99.90;;;;;;5088870;28;20409;-54
2021/03/11 08:42:46;;;;;;;5.00;1.80;;;12.30;99.90;;;;;;5083760;28;20386;-54
2021/03/11 08:45:13;;;;;;;5.57;1.90;;;12.30;99.90;;;;;;5083141;28;20382;-54
2021/03/11 08:48:13;;;;;;;4.35;1.50;;;12.40;99.90;;;;;;5086344;28;20402;-54
2021/03/11 08:50:43;;;;;;;6.20;2.00;;;12.40;99.90;;;;;;5070728;28;20380;-55
2021/03/11 08:53:09;;;;;;;6.60;1.85;;;12.80;99.90;;;;;;5088840;28;20422;-54
2021/03/11 08:55:39;;;;;;;4.82;2.13;;;13.00;99.90;;;;;;5088980;28;20382;-54
2021/03/11 08:58:24;;;;;;;7.30;1.67;;;13.00;99.90;;;;;;5088895;28;20382;-53
2021/03/11 09:00:56;;;;;;;4.20;1.13;;;13.10;99.90;;;;;;5088085;28;20471;-53
2021/03/11 09:03:39;;;;;;;4.90;1.90;;;12.90;99.90;;;;;;5085562;28;20405;-54
2021/03/11 09:06:06;;;;;;;6.43;1.50;;;12.80;99.90;;;;;;5089199;28;20390;-54
2021/03/11 09:08:35;;;;;;;5.03;1.60;;;12.80;99.90;;;;;;5087658;28;20396;-59
2021/03/11 09:11:12;;;;;;;5.13;1.40;;;12.70;99.90;;;;;;5078673;28;20445;-54
2021/03/11 09:13:42;;;;;;;5.05;1.50;;;12.80;99.90;;;;;;5086010;28;20397;-53
2021/03/11 09:16:08;;;;;;;5.20;1.65;;;12.80;99.90;;;;;;5078808;28;20397;-54
2021/03/11 09:18:35;;;;;;;4.70;1.60;;;12.80;99.90;;;;;;5069325;28;20439;-54
2021/03/11 09:21:03;;;;;;;3.90;1.40;;;12.60;99.90;;;;;;5088775;28;20420;-54
2021/03/11 09:23:41;;;;;;;6.15;1.20;;;12.70;99.90;;;;;;5068492;28;20398;-59
2021/03/11 09:26:28;;;;;;;4.28;1.65;;;12.60;99.90;;;;;;5090043;28;20386;-54
2021/03/11 09:28:55;;;;;;;5.60;1.33;;;12.80;99.90;;;;;;5087992;28;20406;-54
2021/03/11 09:31:25;;;;;;;6.60;1.42;;;12.50;99.90;;;;;;5089236;28;20421;-54
2021/03/11 09:33:56;;;;;;;6.28;1.45;;;12.60;99.90;;;;;;5087120;28;21109;-55
2021/03/11 09:36:24;;;;;;;4.30;1.35;;;12.60;99.90;;;;;;5089265;28;21192;-54
2021/03/11 09:38:51;;;;;;;4.32;1.60;;;12.50;99.90;;;;;;5088355;28;20381;-54
2021/03/11 09:41:25;;;;;;;14.68;7.82;;;12.60;99.90;;;;;;5083618;28;20441;-54
2021/03/11 09:43:51;;;;;;;5.32;1.80;;;12.50;99.90;;;;;;5088687;28;20523;-54
2021/03/11 09:46:19;;;;;;;3.97;1.48;;;12.60;99.90;;;;;;5091127;28;20390;-54
2021/03/11 09:48:46;;;;;;;4.25;1.10;;;12.60;99.90;;;;;;5088688;28;20477;-54
2021/03/11 09:51:13;;;;;;;4.70;1.40;;;12.70;99.90;;;;;;5092583;28;20393;-54
2021/03/11 09:53:44;;;;;;;4.13;1.20;;;12.60;99.90;;;;;;5072351;28;20402;-54
2021/03/11 09:56:16;;;;;;;3.90;1.40;;;12.70;99.90;;;;;;5092989;28;20518;-54
2021/03/11 09:58:43;;;;;;;5.87;1.73;;;12.70;99.90;;;;;;5089087;28;20398;-55
2021/03/11 10:01:09;;;;;;;3.90;1.20;;;12.80;99.90;;;;;;5092462;28;20418;-53
2021/03/11 10:03:35;;;;;;;4.10;1.40;;;12.80;99.90;;;;;;5090269;28;20442;-54
2021/03/11 10:06:03;;;;;;;4.68;1.80;;;12.80;99.90;;;;;;5091898;28;20432;-53
2021/03/11 10:08:38;;;;;;;4.20;1.65;;;12.90;99.90;;;;;;5091154;28;20390;-54
2021/03/11 10:11:18;;;;;;;5.40;1.75;;;13.10;99.90;;;;;;5085751;28;20432;-53
2021/03/11 10:13:53;;;;;;;4.60;1.80;;;13.20;99.90;;;;;;5078503;28;20402;-56
2021/03/11 10:16:31;;;;;;;4.50;1.50;;;13.30;99.90;;;;;;5087556;28;20404;-53
2021/03/11 10:19:17;;;;;;;6.60;1.30;;;13.40;99.90;;;;;;5078781;28;20380;-60
2021/03/11 10:21:55;;;;;;;4.30;1.60;;;13.30;99.90;;;;;;5090579;28;20759;-54
2021/03/11 10:24:42;;;;;;;3.75;1.20;;;13.30;99.90;;;;;;5090765;28;20436;-54
2021/03/11 10:27:28;;;;;;;3.50;1.20;;;13.10;99.90;;;;;;5092105;28;20476;-54
2021/03/11 10:30:09;;;;;;;4.93;2.10;;;13.30;99.90;;;;;;5089995;28;20502;-54
2021/03/11 10:32:36;;;;;;;4.60;1.70;;;13.30;99.90;;;;;;5090140;28;20442;-60
2021/03/11 10:35:07;;;;;;;3.95;1.30;;;13.40;99.90;;;;;;5091529;28;20386;-54
2021/03/11 10:37:35;;;;;;;4.00;1.40;;;13.40;99.90;;;;;;5090474;28;20413;-60
2021/03/11 10:40:06;;;;;;;4.50;1.80;;;13.40;99.90;;;;;;5091388;28;20414;-54
2021/03/11 10:42:58;;;;;;;4.60;1.70;;;13.40;99.90;;;;;;5089414;28;20398;-55
2021/03/11 10:45:26;;;;;;;3.80;1.17;;;13.60;99.90;;;;;;5085158;28;20406;-54
2021/03/11 10:48:04;;;;;;;5.13;1.20;;;13.60;99.90;;;;;;5055954;28;20962;-54
2021/03/11 10:50:31;;;;;;;3.90;1.30;;;13.80;99.90;;;;;;5091302;28;20891;-54
2021/03/11 10:52:57;;;;;;;4.30;1.20;;;13.70;99.90;;;;;;5088896;28;20739;-56
2021/03/11 10:55:32;;;;;;;5.78;1.45;;;13.50;99.90;;;;;;5091079;28;20382;-54
2021/03/11 10:57:59;;;;;;;3.60;0.90;;;13.30;99.90;;;;;;5090220;28;20398;-55
2021/03/11 11:00:33;;;;;;;4.00;1.23;;;13.00;99.90;;;;;;5086494;28;20528;-55
2021/03/11 11:03:02;;;;;;;4.18;1.60;;;12.90;99.90;;;;;;5081894;28;20488;-55
2021/03/11 11:05:28;;;;;;;8.60;4.40;;;12.80;99.90;;;;;;5088519;28;20370;-54
2021/03/11 11:07:54;;;;;;;3.67;1.20;;;12.70;99.90;;;;;;5079292;28;20376;-54
2021/03/11 11:10:22;;;;;;;7.00;1.40;;;12.70;99.90;;;;;;5088381;28;20413;-54
2021/03/11 11:12:49;;;;;;;5.10;1.70;;;12.70;99.90;;;;;;5083440;28;20386;-54
2021/03/11 11:15:15;;;;;;;6.10;2.60;;;12.70;99.90;;;;;;5082629;28;20426;-56
2021/03/11 11:17:41;;;;;;;4.57;1.23;;;12.80;99.90;;;;;;5084241;28;20378;-55
2021/03/11 11:20:10;;;;;;;6.40;1.40;;;12.80;99.90;;;;;;5080593;28;20451;-56
2021/03/11 11:22:36;;;;;;;6.05;1.60;;;12.90;99.90;;;;;;5087850;28;20401;-59
2021/03/11 11:25:03;;;;;;;3.60;1.00;;;12.90;99.90;;;;;;5083281;28;20399;-55
2021/03/11 11:27:29;;;;;;;6.90;1.20;;;12.80;99.90;;;;;;5084963;28;20404;-54
2021/03/11 11:29:55;;;;;;;5.80;1.10;;;12.90;99.90;;;;;;5086339;28;20480;-54
2021/03/11 11:32:23;;;;;;;3.65;1.40;;;12.90;99.90;;;;;;5084402;28;20387;-57
2021/03/11 11:34:52;;;;;;;4.50;1.20;;;12.90;99.90;;;;;;5085333;28;20443;-54
2021/03/11 11:37:19;;;;;;;3.88;1.20;;;12.90;99.90;;;;;;5085371;28;20731;-56
2021/03/11 11:39:45;;;;;;;4.22;1.00;;;12.80;99.90;;;;;;5086980;28;20406;-55
2021/03/11 11:42:12;;;;;;;4.00;0.90;;;12.80;99.90;;;;;;5082914;28;20459;-55
2021/03/11 11:44:39;;;;;;;3.70;0.90;;;12.70;99.90;;;;;;5082761;28;20389;-55
2021/03/11 11:47:07;;;;;;;3.40;0.80;;;12.50;99.90;;;;;;5080480;28;20883;-55
2021/03/11 11:49:33;;;;;;;3.03;0.80;;;12.40;99.90;;;;;;5087626;28;20398;-60
2021/03/11 11:51:59;;;;;;;3.10;0.70;;;12.40;99.90;;;;;;5090062;28;20435;-56
2021/03/11 11:54:26;;;;;;;4.10;0.88;;;12.40;99.90;;;;;;5088472;28;20462;-54
2021/03/11 11:56:52;;;;;;;3.00;0.70;;;12.50;99.90;;;;;;5086549;28;20394;-55
2021/03/11 11:59:18;;;;;;;3.63;0.80;;;12.60;99.90;;;;;;5089537;28;20390;-54
2021/03/11 12:01:44;;;;;;;3.22;0.80;;;12.60;99.90;;;;;;5087868;28;20484;-55
2021/03/11 12:04:11;;;;;;;3.77;0.73;;;12.80;99.90;;;;;;5083181;28;20382;-55
2021/03/11 12:06:37;;;;;;;3.13;0.63;;;12.90;99.90;;;;;;5088213;28;20759;-63
2021/03/11 12:09:03;;;;;;;4.13;0.90;;;12.70;99.90;;;;;;5089412;28;20379;-54
2021/03/11 12:11:29;;;;;;;2.80;0.70;;;12.80;99.90;;;;;;5083214;28;20393;-58
2021/03/11 12:13:55;;;;;;;4.70;0.98;;;12.80;99.90;;;;;;5078971;28;20713;-55
2021/03/11 12:16:20;;;;;;;4.10;1.00;;;12.80;99.90;;;;;;5077143;28;20404;-54
2021/03/11 12:18:46;;;;;;;2.80;0.70;;;13.50;99.90;;;;;;5079682;28;20397;-55
2021/03/11 12:21:12;;;;;;;4.90;1.00;;;12.80;99.90;;;;;;5082128;28;20406;-54
2021/03/11 12:23:38;;;;;;;3.00;0.90;;;13.00;99.90;;;;;;5080683;28;20405;-61
2021/03/11 12:26:03;;;;;;;3.00;0.80;;;13.00;99.90;;;;;;5087080;28;20396;-54
2021/03/11 12:28:29;;;;;;;3.30;0.95;;;13.20;99.90;;;;;;5077910;28;20388;-54
2021/03/11 12:30:55;;;;;;;3.10;0.87;;;13.30;99.90;;;;;;5079031;28;21027;-55
2021/03/11 12:33:21;;;;;;;3.22;0.70;;;13.50;99.90;;;;;;5087828;28;20382;-54
2021/03/11 12:35:47;;;;;;;3.10;0.90;;;13.80;99.90;;;;;;5079206;28;20422;-54
2021/03/11 12:38:14;;;;;;;3.20;0.90;;;14.00;99.90;;;;;;5084839;28;20876;-54
2021/03/11 12:40:40;;;;;;;3.50;1.00;;;14.20;99.90;;;;;;5086902;28;20402;-55
2021/03/11 12:43:06;;;;;;;3.60;1.02;;;14.50;99.90;;;;;;5081086;28;20737;-55
2021/03/11 12:45:32;;;;;;;3.20;0.82;;;14.50;99.90;;;;;;5079700;28;20387;-54
2021/03/11 12:47:57;;;;;;;3.50;0.80;;;14.70;99.90;;;;;;5067781;28;20729;-54
2021/03/11 12:50:23;;;;;;;3.13;0.77;;;14.60;99.90;;;;;;5082967;28;20370;-55
2021/03/11 12:52:49;;;;;;;3.10;0.70;;;14.40;99.90;;;;;;5082716;28;20416;-54
2021/03/11 12:55:15;;;;;;;3.10;0.90;;;14.40;99.90;;;;;;5085624;28;20394;-54
2021/03/11 12:57:41;;;;;;;3.80;0.70;;;14.60;99.90;;;;;;5079383;28;20437;-55